Rishiri, Japan

1:43 PM JST on August 21, 2014 (GMT +0900)
Wakkanai | Change Station
CLOSE
Current Station
Airport
Location: Wakkanai Airport,
Elevation: 36 ft
Nearby Weather Stations

Elev 36 ft 45.40 °N, 141.80 °E | Updated 43 minutes ago

Mostly Cloudy
Mostly Cloudy
73 °F
Feels Like 73 °F
N
6
Wind Variable Wind from North

Today
High -- | Low -- °F
--% Chance of Precip.
Yesterday
High -- | Low -- °F
Precip. -- in
4:42 AM 6:33 PM
Waning Crescent, 17% visible
Pressure 29.86 in
Visibility 6.2 miles
Clouds Scattered Clouds 2500 ft
Mostly Cloudy 4000 ft
Dew Point 66 °F
Humidity 78%
Rainfall 0.00 in
Snow Depth Not available.
UV 3 out of 12
Pollen Not available.
Air Quality Not available.
Flu Activity Not available.
METAR RJCW 210400Z 36005KT 9999 SCT025 BKN040 23/19 Q1011

More Conditions Fewer Conditions

Pressure 29.86 in
Visibility 6.2 miles
Clouds Scattered Clouds 2500 ft
Mostly Cloudy 4000 ft
Dew Point 66 °F
Humidity 78%
Rainfall 0.00 in
Snow Depth Not available.
UV 3 out of 12
Pollen Not available.
Air Quality Not available.
Flu Activity Not available.
METAR RJCW 210400Z 36005KT 9999 SCT025 BKN040 23/19 Q1011

More Conditions Fewer Conditions

10-Day Weather Forecast

Almanac

Astronomy

Aug. 21, 2014 Rise Set
Actual Time 4:42 AM JST 6:33 PM JST
Civil Twilight 4:11 AM JST 7:04 PM JST
Nautical Twilight 3:32 AM JST 7:42 PM JST
Astronomical Twilight 2:50 AM JST 8:24 PM JST
Moon 12:35 AM JST 3:38 PM JST
Length of Visible Light 14h 53m
Length of Day
13h 50m
Tomorrow will be 2m 54s shorter.
Waning Crescent, 17% of the Moon is Illuminated
Today
Waning Crescent
Aug 25
New
Sep 2
First Quarter
Sep 8
Full
Sep 15
Last Quarter

Yesterday's Extremes

Country Highs Country Lows

Community

WunderPhotos

Upload Photos

1,745,856 photos uploaded!

Nearby

Snow Depth

Not available.

Earthquake Activity

City Distance Mag. Time & Date
No recent earthquake activity has been reported nearby.
Minimum magnitude displayed is 2.5.

Coastal Water Temperatures

Place Temperature
No Stations Reporting

Nearby Weather Stations